sensor_id;sensor_type;location;lat;lon;timestamp;P1;durP1;ratioP1;P2;durP2;ratioP2
4096;SDS011;2062;50.694;7.246;2023-05-06T00:00:15;3.00;;;0.80;;
4096;SDS011;2062;50.694;7.246;2023-05-06T00:02:42;3.83;;;0.80;;
4096;SDS011;2062;50.694;7.246;2023-05-06T00:05:09;3.63;;;0.70;;
4096;SDS011;2062;50.694;7.246;2023-05-06T00:07:36;3.92;;;0.60;;
4096;SDS011;2062;50.694;7.246;2023-05-06T00:10:03;3.03;;;0.70;;
4096;SDS011;2062;50.694;7.246;2023-05-06T00:12:30;3.10;;;0.80;;
4096;SDS011;2062;50.694;7.246;2023-05-06T00:14:58;2.78;;;0.70;;
4096;SDS011;2062;50.694;7.246;2023-05-06T00:17:25;3.35;;;0.60;;
4096;SDS011;2062;50.694;7.246;2023-05-06T00:19:52;3.60;;;0.70;;
4096;SDS011;2062;50.694;7.246;2023-05-06T00:22:20;2.70;;;0.60;;
4096;SDS011;2062;50.694;7.246;2023-05-06T00:24:47;3.22;;;0.70;;
4096;SDS011;2062;50.694;7.246;2023-05-06T00:27:13;3.47;;;0.80;;
4096;SDS011;2062;50.694;7.246;2023-05-06T00:29:40;4.45;;;0.55;;
4096;SDS011;2062;50.694;7.246;2023-05-06T00:32:08;6.53;;;0.70;;
4096;SDS011;2062;50.694;7.246;2023-05-06T00:34:35;3.50;;;0.63;;
4096;SDS011;2062;50.694;7.246;2023-05-06T00:37:02;2.78;;;0.68;;
4096;SDS011;2062;50.694;7.246;2023-05-06T00:39:29;3.85;;;0.77;;
4096;SDS011;2062;50.694;7.246;2023-05-06T00:41:58;6.45;;;0.80;;
4096;SDS011;2062;50.694;7.246;2023-05-06T00:44:26;3.92;;;0.80;;
4096;SDS011;2062;50.694;7.246;2023-05-06T00:46:52;3.10;;;0.80;;
4096;SDS011;2062;50.694;7.246;2023-05-06T00:49:21;3.58;;;0.57;;
4096;SDS011;2062;50.694;7.246;2023-05-06T00:51:49;3.92;;;0.70;;
4096;SDS011;2062;50.694;7.246;2023-05-06T00:54:16;2.80;;;0.70;;
4096;SDS011;2062;50.694;7.246;2023-05-06T00:56:43;3.00;;;0.70;;
4096;SDS011;2062;50.694;7.246;2023-05-06T00:59:10;3.93;;;0.80;;
4096;SDS011;2062;50.694;7.246;2023-05-06T01:01:37;3.45;;;0.95;;
4096;SDS011;2062;50.694;7.246;2023-05-06T01:04:04;4.00;;;0.98;;
4096;SDS011;2062;50.694;7.246;2023-05-06T01:06:36;5.15;;;1.20;;
4096;SDS011;2062;50.694;7.246;2023-05-06T01:09:09;4.00;;;1.30;;
4096;SDS011;2062;50.694;7.246;2023-05-06T01:11:45;5.43;;;2.10;;
4096;SDS011;2062;50.694;7.246;2023-05-06T01:14:17;5.07;;;2.28;;
4096;SDS011;2062;50.694;7.246;2023-05-06T01:16:52;5.22;;;2.05;;
4096;SDS011;2062;50.694;7.246;2023-05-06T01:22:08;4.85;;;1.52;;
4096;SDS011;2062;50.694;7.246;2023-05-06T01:24:38;4.37;;;1.70;;
4096;SDS011;2062;50.694;7.246;2023-05-06T01:27:06;3.90;;;1.33;;
4096;SDS011;2062;50.694;7.246;2023-05-06T01:29:34;4.93;;;1.58;;
4096;SDS011;2062;50.694;7.246;2023-05-06T01:32:07;3.88;;;1.27;;
4096;SDS011;2062;50.694;7.246;2023-05-06T01:34:48;4.07;;;1.00;;
4096;SDS011;2062;50.694;7.246;2023-05-06T01:37:22;3.47;;;1.10;;
4096;SDS011;2062;50.694;7.246;2023-05-06T01:39:55;3.72;;;1.10;;
4096;SDS011;2062;50.694;7.246;2023-05-06T01:42:25;4.13;;;1.25;;
4096;SDS011;2062;50.694;7.246;2023-05-06T01:44:52;4.07;;;1.10;;
4096;SDS011;2062;50.694;7.246;2023-05-06T01:47:21;4.32;;;1.40;;
4096;SDS011;2062;50.694;7.246;2023-05-06T01:49:49;4.23;;;1.20;;
4096;SDS011;2062;50.694;7.246;2023-05-06T01:52:16;4.60;;;1.88;;
4096;SDS011;2062;50.694;7.246;2023-05-06T01:54:42;7.00;;;2.33;;
4096;SDS011;2062;50.694;7.246;2023-05-06T01:57:11;4.90;;;1.80;;
4096;SDS011;2062;50.694;7.246;2023-05-06T01:59:37;5.13;;;2.03;;
4096;SDS011;2062;50.694;7.246;2023-05-06T02:02:04;5.37;;;2.23;;
4096;SDS011;2062;50.694;7.246;2023-05-06T02:04:32;3.85;;;1.60;;
4096;SDS011;2062;50.694;7.246;2023-05-06T02:06:59;5.25;;;1.90;;
4096;SDS011;2062;50.694;7.246;2023-05-06T02:09:25;4.88;;;1.90;;
4096;SDS011;2062;50.694;7.246;2023-05-06T02:11:52;4.55;;;2.10;;
4096;SDS011;2062;50.694;7.246;2023-05-06T02:14:20;5.33;;;2.00;;
4096;SDS011;2062;50.694;7.246;2023-05-06T02:16:47;4.65;;;1.80;;
4096;SDS011;2062;50.694;7.246;2023-05-06T02:19:14;5.53;;;2.42;;
4096;SDS011;2062;50.694;7.246;2023-05-06T02:21:40;5.90;;;2.58;;
4096;SDS011;2062;50.694;7.246;2023-05-06T02:24:07;6.93;;;2.15;;
4096;SDS011;2062;50.694;7.246;2023-05-06T02:26:34;4.60;;;1.97;;
4096;SDS011;2062;50.694;7.246;2023-05-06T02:29:01;6.22;;;2.08;;
4096;SDS011;2062;50.694;7.246;2023-05-06T02:31:29;5.75;;;1.92;;
4096;SDS011;2062;50.694;7.246;2023-05-06T02:33:56;5.43;;;2.08;;
4096;SDS011;2062;50.694;7.246;2023-05-06T02:36:22;4.95;;;2.00;;
4096;SDS011;2062;50.694;7.246;2023-05-06T02:38:49;4.93;;;2.13;;
4096;SDS011;2062;50.694;7.246;2023-05-06T02:41:16;4.63;;;1.98;;
4096;SDS011;2062;50.694;7.246;2023-05-06T02:43:43;5.03;;;1.98;;
4096;SDS011;2062;50.694;7.246;2023-05-06T02:46:10;6.05;;;2.17;;
4096;SDS011;2062;50.694;7.246;2023-05-06T02:48:38;4.75;;;2.10;;
4096;SDS011;2062;50.694;7.246;2023-05-06T02:51:06;5.07;;;2.10;;
4096;SDS011;2062;50.694;7.246;2023-05-06T02:53:32;4.25;;;1.70;;
4096;SDS011;2062;50.694;7.246;2023-05-06T02:55:59;5.45;;;1.95;;
4096;SDS011;2062;50.694;7.246;2023-05-06T02:58:26;6.22;;;1.98;;
4096;SDS011;2062;50.694;7.246;2023-05-06T03:00:53;6.50;;;2.00;;
4096;SDS011;2062;50.694;7.246;2023-05-06T03:03:20;4.20;;;1.80;;
4096;SDS011;2062;50.694;7.246;2023-05-06T03:05:49;4.93;;;1.90;;
4096;SDS011;2062;50.694;7.246;2023-05-06T03:08:16;5.28;;;1.95;;
4096;SDS011;2062;50.694;7.246;2023-05-06T03:10:42;5.47;;;1.80;;
4096;SDS011;2062;50.694;7.246;2023-05-06T03:13:09;5.53;;;2.03;;
4096;SDS011;2062;50.694;7.246;2023-05-06T03:15:36;4.93;;;1.30;;
4096;SDS011;2062;50.694;7.246;2023-05-06T03:18:03;4.25;;;1.73;;
4096;SDS011;2062;50.694;7.246;2023-05-06T03:20:29;4.28;;;1.70;;
4096;SDS011;2062;50.694;7.246;2023-05-06T03:22:58;4.97;;;1.52;;
4096;SDS011;2062;50.694;7.246;2023-05-06T03:25:24;10.50;;;2.00;;
4096;SDS011;2062;50.694;7.246;2023-05-06T03:27:51;4.20;;;1.40;;
4096;SDS011;2062;50.694;7.246;2023-05-06T03:30:18;3.92;;;1.35;;
4096;SDS011;2062;50.694;7.246;2023-05-06T03:32:45;6.05;;;2.00;;
4096;SDS011;2062;50.694;7.246;2023-05-06T03:35:12;4.28;;;1.55;;
4096;SDS011;2062;50.694;7.246;2023-05-06T03:37:40;4.10;;;1.63;;
4096;SDS011;2062;50.694;7.246;2023-05-06T03:40:08;4.50;;;1.60;;
4096;SDS011;2062;50.694;7.246;2023-05-06T03:42:35;5.28;;;1.60;;
4096;SDS011;2062;50.694;7.246;2023-05-06T03:45:02;5.20;;;1.63;;
4096;SDS011;2062;50.694;7.246;2023-05-06T03:47:30;5.15;;;1.65;;
4096;SDS011;2062;50.694;7.246;2023-05-06T03:49:57;3.80;;;1.30;;
4096;SDS011;2062;50.694;7.246;2023-05-06T03:52:24;4.37;;;1.43;;
4096;SDS011;2062;50.694;7.246;2023-05-06T03:54:51;3.80;;;1.30;;
4096;SDS011;2062;50.694;7.246;2023-05-06T03:57:19;4.00;;;1.48;;
4096;SDS011;2062;50.694;7.246;2023-05-06T03:59:46;4.20;;;1.40;;
4096;SDS011;2062;50.694;7.246;2023-05-06T04:02:13;4.13;;;1.20;;
4096;SDS011;2062;50.694;7.246;2023-05-06T04:04:41;4.03;;;1.20;;
4096;SDS011;2062;50.694;7.246;2023-05-06T04:07:08;3.85;;;1.35;;
4096;SDS011;2062;50.694;7.246;2023-05-06T04:09:34;3.92;;;1.27;;
4096;SDS011;2062;50.694;7.246;2023-05-06T04:12:01;5.35;;;1.27;;
4096;SDS011;2062;50.694;7.246;2023-05-06T04:14:30;5.50;;;1.30;;
4096;SDS011;2062;50.694;7.246;2023-05-06T04:16:56;3.40;;;1.10;;
4096;SDS011;2062;50.694;7.246;2023-05-06T04:19:24;3.67;;;1.20;;
4096;SDS011;2062;50.694;7.246;2023-05-06T04:21:50;4.82;;;1.52;;
4096;SDS011;2062;50.694;7.246;2023-05-06T04:24:17;3.72;;;1.17;;
4096;SDS011;2062;50.694;7.246;2023-05-06T04:26:45;3.80;;;1.30;;
4096;SDS011;2062;50.694;7.246;2023-05-06T04:29:12;4.67;;;1.57;;
4096;SDS011;2062;50.694;7.246;2023-05-06T04:31:40;3.85;;;1.40;;
4096;SDS011;2062;50.694;7.246;2023-05-06T04:34:07;4.05;;;1.50;;
4096;SDS011;2062;50.694;7.246;2023-05-06T04:36:34;5.03;;;1.50;;
4096;SDS011;2062;50.694;7.246;2023-05-06T04:39:01;5.50;;;2.28;;
4096;SDS011;2062;50.694;7.246;2023-05-06T04:41:30;6.93;;;2.23;;
4096;SDS011;2062;50.694;7.246;2023-05-06T04:43:58;5.47;;;2.30;;
4096;SDS011;2062;50.694;7.246;2023-05-06T04:46:25;4.68;;;2.03;;
4096;SDS011;2062;50.694;7.246;2023-05-06T04:48:53;4.90;;;2.15;;
4096;SDS011;2062;50.694;7.246;2023-05-06T04:51:22;4.35;;;1.80;;
4096;SDS011;2062;50.694;7.246;2023-05-06T04:53:48;6.67;;;2.00;;
4096;SDS011;2062;50.694;7.246;2023-05-06T04:56:16;5.63;;;1.75;;
4096;SDS011;2062;50.694;7.246;2023-05-06T04:58:43;4.63;;;1.70;;
4096;SDS011;2062;50.694;7.246;2023-05-06T05:01:10;4.00;;;1.73;;
4096;SDS011;2062;50.694;7.246;2023-05-06T05:03:37;5.22;;;1.52;;
4096;SDS011;2062;50.694;7.246;2023-05-06T05:06:05;4.20;;;1.27;;
4096;SDS011;2062;50.694;7.246;2023-05-06T05:08:33;4.10;;;1.38;;
4096;SDS011;2062;50.694;7.246;2023-05-06T05:11:00;5.10;;;1.58;;
4096;SDS011;2062;50.694;7.246;2023-05-06T05:13:27;4.30;;;1.70;;
4096;SDS011;2062;50.694;7.246;2023-05-06T05:15:54;4.70;;;1.50;;
4096;SDS011;2062;50.694;7.246;2023-05-06T05:18:21;3.90;;;1.40;;
4096;SDS011;2062;50.694;7.246;2023-05-06T05:20:48;4.38;;;1.30;;
4096;SDS011;2062;50.694;7.246;2023-05-06T05:23:16;4.47;;;1.50;;
4096;SDS011;2062;50.694;7.246;2023-05-06T05:25:43;4.00;;;1.17;;
4096;SDS011;2062;50.694;7.246;2023-05-06T05:28:10;3.70;;;1.27;;
4096;SDS011;2062;50.694;7.246;2023-05-06T05:30:37;4.20;;;1.40;;
4096;SDS011;2062;50.694;7.246;2023-05-06T05:33:04;4.70;;;1.75;;
4096;SDS011;2062;50.694;7.246;2023-05-06T05:35:31;5.28;;;1.80;;
4096;SDS011;2062;50.694;7.246;2023-05-06T05:37:57;4.45;;;1.38;;
4096;SDS011;2062;50.694;7.246;2023-05-06T05:40:26;5.00;;;1.75;;
4096;SDS011;2062;50.694;7.246;2023-05-06T05:42:53;5.30;;;1.43;;
4096;SDS011;2062;50.694;7.246;2023-05-06T05:45:19;4.10;;;1.23;;
4096;SDS011;2062;50.694;7.246;2023-05-06T05:47:46;6.00;;;1.50;;
4096;SDS011;2062;50.694;7.246;2023-05-06T05:50:13;3.75;;;1.30;;
4096;SDS011;2062;50.694;7.246;2023-05-06T05:52:40;6.18;;;1.50;;
4096;SDS011;2062;50.694;7.246;2023-05-06T05:55:07;3.73;;;1.00;;
4096;SDS011;2062;50.694;7.246;2023-05-06T05:57:35;4.63;;;1.33;;
4096;SDS011;2062;50.694;7.246;2023-05-06T06:00:02;3.70;;;1.50;;
4096;SDS011;2062;50.694;7.246;2023-05-06T06:02:30;5.72;;;1.35;;
4096;SDS011;2062;50.694;7.246;2023-05-06T06:04:58;4.18;;;1.20;;
4096;SDS011;2062;50.694;7.246;2023-05-06T06:07:25;4.67;;;1.60;;
4096;SDS011;2062;50.694;7.246;2023-05-06T06:09:52;3.63;;;1.27;;
4096;SDS011;2062;50.694;7.246;2023-05-06T06:12:19;3.72;;;1.10;;
4096;SDS011;2062;50.694;7.246;2023-05-06T06:14:47;4.47;;;1.27;;
4096;SDS011;2062;50.694;7.246;2023-05-06T06:17:14;3.25;;;1.10;;
4096;SDS011;2062;50.694;7.246;2023-05-06T06:19:43;4.27;;;1.27;;
4096;SDS011;2062;50.694;7.246;2023-05-06T06:22:10;3.97;;;1.25;;
4096;SDS011;2062;50.694;7.246;2023-05-06T06:24:37;4.80;;;1.60;;
4096;SDS011;2062;50.694;7.246;2023-05-06T06:27:04;4.80;;;1.60;;
4096;SDS011;2062;50.694;7.246;2023-05-06T06:29:31;5.35;;;1.50;;
4096;SDS011;2062;50.694;7.246;2023-05-06T06:32:01;3.87;;;1.37;;
4096;SDS011;2062;50.694;7.246;2023-05-06T06:34:28;3.35;;;1.20;;
4096;SDS011;2062;50.694;7.246;2023-05-06T06:36:55;4.20;;;1.20;;
4096;SDS011;2062;50.694;7.246;2023-05-06T06:39:22;4.57;;;1.23;;
4096;SDS011;2062;50.694;7.246;2023-05-06T06:41:49;3.50;;;1.05;;
4096;SDS011;2062;50.694;7.246;2023-05-06T06:44:15;3.73;;;1.20;;
4096;SDS011;2062;50.694;7.246;2023-05-06T06:46:42;3.30;;;0.90;;
4096;SDS011;2062;50.694;7.246;2023-05-06T06:49:10;3.33;;;0.98;;
4096;SDS011;2062;50.694;7.246;2023-05-06T06:51:37;3.25;;;0.90;;
4096;SDS011;2062;50.694;7.246;2023-05-06T06:54:04;4.75;;;1.00;;
4096;SDS011;2062;50.694;7.246;2023-05-06T06:56:31;3.50;;;1.07;;
4096;SDS011;2062;50.694;7.246;2023-05-06T06:58:58;3.00;;;0.88;;
4096;SDS011;2062;50.694;7.246;2023-05-06T07:01:25;3.20;;;1.10;;
4096;SDS011;2062;50.694;7.246;2023-05-06T07:03:52;3.30;;;1.00;;
4096;SDS011;2062;50.694;7.246;2023-05-06T07:06:20;3.25;;;0.95;;
4096;SDS011;2062;50.694;7.246;2023-05-06T07:08:47;3.63;;;0.90;;
4096;SDS011;2062;50.694;7.246;2023-05-06T07:11:13;3.03;;;0.90;;
4096;SDS011;2062;50.694;7.246;2023-05-06T07:13:40;3.35;;;1.10;;
4096;SDS011;2062;50.694;7.246;2023-05-06T07:16:07;3.83;;;1.15;;
4096;SDS011;2062;50.694;7.246;2023-05-06T07:18:34;2.85;;;0.88;;
4096;SDS011;2062;50.694;7.246;2023-05-06T07:21:00;3.70;;;1.00;;
4096;SDS011;2062;50.694;7.246;2023-05-06T07:23:28;3.20;;;0.90;;
4096;SDS011;2062;50.694;7.246;2023-05-06T07:25:56;5.25;;;1.30;;
4096;SDS011;2062;50.694;7.246;2023-05-06T07:28:23;4.10;;;0.90;;
4096;SDS011;2062;50.694;7.246;2023-05-06T07:30:50;3.63;;;1.00;;
4096;SDS011;2062;50.694;7.246;2023-05-06T07:33:17;3.00;;;0.77;;
4096;SDS011;2062;50.694;7.246;2023-05-06T07:35:44;3.95;;;0.90;;
4096;SDS011;2062;50.694;7.246;2023-05-06T07:38:11;5.05;;;0.98;;
4096;SDS011;2062;50.694;7.246;2023-05-06T07:40:39;3.83;;;0.88;;
4096;SDS011;2062;50.694;7.246;2023-05-06T07:43:06;3.00;;;1.00;;
4096;SDS011;2062;50.694;7.246;2023-05-06T07:45:36;3.57;;;0.83;;
4096;SDS011;2062;50.694;7.246;2023-05-06T07:48:03;3.72;;;0.98;;
4096;SDS011;2062;50.694;7.246;2023-05-06T07:50:31;3.40;;;1.10;;
4096;SDS011;2062;50.694;7.246;2023-05-06T07:52:58;2.88;;;1.00;;
4096;SDS011;2062;50.694;7.246;2023-05-06T07:55:25;3.33;;;1.00;;
4096;SDS011;2062;50.694;7.246;2023-05-06T07:57:55;3.00;;;0.80;;
4096;SDS011;2062;50.694;7.246;2023-05-06T08:00:21;3.33;;;1.10;;
4096;SDS011;2062;50.694;7.246;2023-05-06T08:02:48;3.40;;;1.25;;
4096;SDS011;2062;50.694;7.246;2023-05-06T08:05:15;4.95;;;1.30;;
4096;SDS011;2062;50.694;7.246;2023-05-06T08:07:42;3.70;;;1.35;;
4096;SDS011;2062;50.694;7.246;2023-05-06T08:10:09;5.67;;;1.30;;
4096;SDS011;2062;50.694;7.246;2023-05-06T08:12:36;3.83;;;1.30;;
4096;SDS011;2062;50.694;7.246;2023-05-06T08:15:05;4.00;;;1.27;;
4096;SDS011;2062;50.694;7.246;2023-05-06T08:17:33;5.80;;;1.13;;
4096;SDS011;2062;50.694;7.246;2023-05-06T08:20:00;5.32;;;1.52;;
4096;SDS011;2062;50.694;7.246;2023-05-06T08:22:27;4.40;;;1.47;;
4096;SDS011;2062;50.694;7.246;2023-05-06T08:24:53;3.42;;;1.00;;
4096;SDS011;2062;50.694;7.246;2023-05-06T08:27:21;7.72;;;1.42;;
4096;SDS011;2062;50.694;7.246;2023-05-06T08:29:48;4.47;;;1.00;;
4096;SDS011;2062;50.694;7.246;2023-05-06T08:32:16;5.63;;;1.10;;
4096;SDS011;2062;50.694;7.246;2023-05-06T08:34:43;3.93;;;1.00;;
4096;SDS011;2062;50.694;7.246;2023-05-06T08:37:10;3.88;;;0.90;;
4096;SDS011;2062;50.694;7.246;2023-05-06T08:39:37;2.83;;;0.90;;
4096;SDS011;2062;50.694;7.246;2023-05-06T08:42:03;2.65;;;0.80;;
4096;SDS011;2062;50.694;7.246;2023-05-06T08:44:31;5.50;;;1.00;;
4096;SDS011;2062;50.694;7.246;2023-05-06T08:46:58;7.97;;;0.80;;
4096;SDS011;2062;50.694;7.246;2023-05-06T08:49:26;5.72;;;1.00;;
4096;SDS011;2062;50.694;7.246;2023-05-06T08:51:53;4.55;;;1.00;;
4096;SDS011;2062;50.694;7.246;2023-05-06T08:54:21;4.55;;;1.15;;
4096;SDS011;2062;50.694;7.246;2023-05-06T08:56:50;3.90;;;0.80;;
4096;SDS011;2062;50.694;7.246;2023-05-06T08:59:19;3.53;;;0.97;;
4096;SDS011;2062;50.694;7.246;2023-05-06T09:01:49;5.55;;;0.88;;
4096;SDS011;2062;50.694;7.246;2023-05-06T09:04:16;6.50;;;1.00;;
4096;SDS011;2062;50.694;7.246;2023-05-06T09:06:45;10.18;;;1.20;;
4096;SDS011;2062;50.694;7.246;2023-05-06T09:09:12;8.88;;;0.90;;
4096;SDS011;2062;50.694;7.246;2023-05-06T09:11:39;4.43;;;0.80;;
4096;SDS011;2062;50.694;7.246;2023-05-06T09:14:07;8.77;;;1.50;;
4096;SDS011;2062;50.694;7.246;2023-05-06T09:16:36;5.03;;;1.20;;
4096;SDS011;2062;50.694;7.246;2023-05-06T09:19:04;4.55;;;1.27;;
4096;SDS011;2062;50.694;7.246;2023-05-06T09:21:31;6.18;;;0.80;;
4096;SDS011;2062;50.694;7.246;2023-05-06T09:24:00;3.73;;;0.80;;
4096;SDS011;2062;50.694;7.246;2023-05-06T09:26:28;5.63;;;1.00;;
4096;SDS011;2062;50.694;7.246;2023-05-06T09:28:55;5.57;;;0.80;;
4096;SDS011;2062;50.694;7.246;2023-05-06T09:31:22;3.97;;;0.77;;
4096;SDS011;2062;50.694;7.246;2023-05-06T09:33:50;4.78;;;1.00;;
4096;SDS011;2062;50.694;7.246;2023-05-06T09:36:17;4.13;;;0.77;;
4096;SDS011;2062;50.694;7.246;2023-05-06T09:38:45;5.72;;;1.00;;
4096;SDS011;2062;50.694;7.246;2023-05-06T09:41:13;3.83;;;1.00;;
4096;SDS011;2062;50.694;7.246;2023-05-06T09:43:41;4.43;;;1.10;;
4096;SDS011;2062;50.694;7.246;2023-05-06T09:46:09;3.08;;;0.70;;
4096;SDS011;2062;50.694;7.246;2023-05-06T09:48:37;7.37;;;1.10;;
4096;SDS011;2062;50.694;7.246;2023-05-06T09:51:06;3.35;;;0.90;;
4096;SDS011;2062;50.694;7.246;2023-05-06T09:53:33;3.10;;;0.90;;
4096;SDS011;2062;50.694;7.246;2023-05-06T09:56:01;3.65;;;0.82;;
4096;SDS011;2062;50.694;7.246;2023-05-06T09:58:30;3.40;;;0.80;;
4096;SDS011;2062;50.694;7.246;2023-05-06T10:00:57;4.90;;;1.30;;
4096;SDS011;2062;50.694;7.246;2023-05-06T10:03:25;4.40;;;1.10;;
4096;SDS011;2062;50.694;7.246;2023-05-06T10:05:53;3.17;;;1.00;;
4096;SDS011;2062;50.694;7.246;2023-05-06T10:08:21;4.35;;;0.80;;
4096;SDS011;2062;50.694;7.246;2023-05-06T10:10:49;6.40;;;1.48;;
4096;SDS011;2062;50.694;7.246;2023-05-06T10:13:18;4.83;;;1.33;;
4096;SDS011;2062;50.694;7.246;2023-05-06T10:15:48;5.60;;;1.02;;
4096;SDS011;2062;50.694;7.246;2023-05-06T10:18:16;5.07;;;1.17;;
4096;SDS011;2062;50.694;7.246;2023-05-06T10:20:44;6.82;;;1.20;;
4096;SDS011;2062;50.694;7.246;2023-05-06T10:23:15;5.15;;;1.10;;
4096;SDS011;2062;50.694;7.246;2023-05-06T10:25:50;4.37;;;1.23;;
4096;SDS011;2062;50.694;7.246;2023-05-06T10:28:20;3.70;;;1.20;;
4096;SDS011;2062;50.694;7.246;2023-05-06T10:30:50;3.50;;;1.10;;
4096;SDS011;2062;50.694;7.246;2023-05-06T10:33:18;3.65;;;0.90;;
4096;SDS011;2062;50.694;7.246;2023-05-06T10:35:51;4.07;;;1.02;;
4096;SDS011;2062;50.694;7.246;2023-05-06T10:38:25;5.63;;;1.10;;
4096;SDS011;2062;50.694;7.246;2023-05-06T10:40:56;4.38;;;0.90;;
4096;SDS011;2062;50.694;7.246;2023-05-06T10:43:24;4.05;;;0.98;;
4096;SDS011;2062;50.694;7.246;2023-05-06T10:46:01;4.65;;;0.90;;
4096;SDS011;2062;50.694;7.246;2023-05-06T10:48:30;3.17;;;1.05;;
4096;SDS011;2062;50.694;7.246;2023-05-06T10:53:59;3.80;;;1.00;;
4096;SDS011;2062;50.694;7.246;2023-05-06T10:56:31;3.10;;;0.80;;
4096;SDS011;2062;50.694;7.246;2023-05-06T10:59:02;3.67;;;0.90;;
4096;SDS011;2062;50.694;7.246;2023-05-06T11:01:34;5.00;;;1.20;;
4096;SDS011;2062;50.694;7.246;2023-05-06T11:04:03;4.83;;;0.80;;
4096;SDS011;2062;50.694;7.246;2023-05-06T11:06:32;2.95;;;0.80;;
4096;SDS011;2062;50.694;7.246;2023-05-06T11:09:00;4.35;;;0.90;;
4096;SDS011;2062;50.694;7.246;2023-05-06T11:11:47;2.80;;;0.90;;
4096;SDS011;2062;50.694;7.246;2023-05-06T11:14:23;3.67;;;1.00;;
4096;SDS011;2062;50.694;7.246;2023-05-06T11:16:53;4.30;;;0.87;;
4096;SDS011;2062;50.694;7.246;2023-05-06T11:19:22;3.40;;;0.88;;
4096;SDS011;2062;50.694;7.246;2023-05-06T11:21:50;3.55;;;1.00;;
4096;SDS011;2062;50.694;7.246;2023-05-06T11:24:26;2.95;;;1.00;;
4096;SDS011;2062;50.694;7.246;2023-05-06T11:26:54;3.58;;;0.95;;
4096;SDS011;2062;50.694;7.246;2023-05-06T11:29:22;3.07;;;0.77;;
4096;SDS011;2062;50.694;7.246;2023-05-06T11:31:49;3.13;;;0.90;;
4096;SDS011;2062;50.694;7.246;2023-05-06T11:34:23;3.35;;;0.82;;
4096;SDS011;2062;50.694;7.246;2023-05-06T11:36:52;2.92;;;0.80;;
4096;SDS011;2062;50.694;7.246;2023-05-06T11:39:25;2.72;;;0.63;;
4096;SDS011;2062;50.694;7.246;2023-05-06T11:41:54;4.50;;;1.00;;
4096;SDS011;2062;50.694;7.246;2023-05-06T11:44:23;4.13;;;0.80;;
4096;SDS011;2062;50.694;7.246;2023-05-06T11:46:54;5.40;;;1.10;;
4096;SDS011;2062;50.694;7.246;2023-05-06T11:49:23;6.55;;;0.80;;
4096;SDS011;2062;50.694;7.246;2023-05-06T11:51:51;2.88;;;0.70;;
4096;SDS011;2062;50.694;7.246;2023-05-06T11:54:18;3.73;;;0.73;;
4096;SDS011;2062;50.694;7.246;2023-05-06T11:56:47;3.63;;;0.90;;
4096;SDS011;2062;50.694;7.246;2023-05-06T11:59:16;5.82;;;1.10;;
4096;SDS011;2062;50.694;7.246;2023-05-06T12:01:50;3.88;;;0.80;;
4096;SDS011;2062;50.694;7.246;2023-05-06T12:04:17;4.03;;;0.90;;
4096;SDS011;2062;50.694;7.246;2023-05-06T12:06:45;3.03;;;1.00;;
4096;SDS011;2062;50.694;7.246;2023-05-06T12:09:12;4.57;;;1.02;;
4096;SDS011;2062;50.694;7.246;2023-05-06T12:11:39;3.40;;;1.00;;
4096;SDS011;2062;50.694;7.246;2023-05-06T12:14:08;6.43;;;0.90;;
4096;SDS011;2062;50.694;7.246;2023-05-06T12:16:35;4.72;;;1.00;;
4096;SDS011;2062;50.694;7.246;2023-05-06T12:19:02;6.10;;;0.90;;
4096;SDS011;2062;50.694;7.246;2023-05-06T12:21:30;4.32;;;0.90;;
4096;SDS011;2062;50.694;7.246;2023-05-06T12:23:59;4.35;;;1.10;;
4096;SDS011;2062;50.694;7.246;2023-05-06T12:26:26;3.58;;;1.00;;
4096;SDS011;2062;50.694;7.246;2023-05-06T12:29:04;3.67;;;0.80;;
4096;SDS011;2062;50.694;7.246;2023-05-06T12:31:33;3.90;;;0.80;;
4096;SDS011;2062;50.694;7.246;2023-05-06T12:34:00;2.90;;;0.70;;
4096;SDS011;2062;50.694;7.246;2023-05-06T12:36:27;2.50;;;0.77;;
4096;SDS011;2062;50.694;7.246;2023-05-06T12:38:55;3.42;;;0.80;;
4096;SDS011;2062;50.694;7.246;2023-05-06T12:41:26;3.92;;;0.73;;
4096;SDS011;2062;50.694;7.246;2023-05-06T12:44:01;3.53;;;0.80;;
4096;SDS011;2062;50.694;7.246;2023-05-06T12:46:29;3.97;;;0.90;;
4096;SDS011;2062;50.694;7.246;2023-05-06T12:48:56;2.53;;;0.75;;
4096;SDS011;2062;50.694;7.246;2023-05-06T12:51:23;3.03;;;0.60;;
4096;SDS011;2062;50.694;7.246;2023-05-06T12:53:51;3.08;;;0.95;;
4096;SDS011;2062;50.694;7.246;2023-05-06T12:56:18;3.43;;;0.70;;
4096;SDS011;2062;50.694;7.246;2023-05-06T12:58:55;3.20;;;0.80;;
4096;SDS011;2062;50.694;7.246;2023-05-06T13:01:23;6.32;;;1.00;;
4096;SDS011;2062;50.694;7.246;2023-05-06T13:03:50;3.88;;;0.75;;
4096;SDS011;2062;50.694;7.246;2023-05-06T13:06:17;2.83;;;0.93;;
4096;SDS011;2062;50.694;7.246;2023-05-06T13:08:44;3.10;;;0.90;;
4096;SDS011;2062;50.694;7.246;2023-05-06T13:11:11;4.95;;;1.00;;
4096;SDS011;2062;50.694;7.246;2023-05-06T13:13:42;2.92;;;0.90;;
4096;SDS011;2062;50.694;7.246;2023-05-06T13:16:11;3.95;;;0.80;;
4096;SDS011;2062;50.694;7.246;2023-05-06T13:18:38;2.75;;;0.80;;
4096;SDS011;2062;50.694;7.246;2023-05-06T13:21:04;64.27;;;3.40;;
4096;SDS011;2062;50.694;7.246;2023-05-06T13:23:31;9.00;;;1.20;;
4096;SDS011;2062;50.694;7.246;2023-05-06T13:26:00;9.80;;;1.20;;
4096;SDS011;2062;50.694;7.246;2023-05-06T13:28:29;41.63;;;3.30;;
4096;SDS011;2062;50.694;7.246;2023-05-06T13:30:57;9.82;;;1.00;;
4096;SDS011;2062;50.694;7.246;2023-05-06T13:33:27;7.97;;;0.93;;
4096;SDS011;2062;50.694;7.246;2023-05-06T13:35:55;4.45;;;0.90;;
4096;SDS011;2062;50.694;7.246;2023-05-06T13:38:21;7.28;;;1.08;;
4096;SDS011;2062;50.694;7.246;2023-05-06T13:40:49;3.08;;;0.80;;
4096;SDS011;2062;50.694;7.246;2023-05-06T13:43:16;4.20;;;0.90;;
4096;SDS011;2062;50.694;7.246;2023-05-06T13:45:43;4.33;;;0.67;;
4096;SDS011;2062;50.694;7.246;2023-05-06T13:48:10;4.40;;;0.90;;
4096;SDS011;2062;50.694;7.246;2023-05-06T13:50:38;4.40;;;0.90;;
4096;SDS011;2062;50.694;7.246;2023-05-06T13:53:06;4.47;;;0.85;;
4096;SDS011;2062;50.694;7.246;2023-05-06T13:55:33;3.10;;;0.73;;
4096;SDS011;2062;50.694;7.246;2023-05-06T13:58:00;2.73;;;0.60;;
4096;SDS011;2062;50.694;7.246;2023-05-06T14:00:27;2.92;;;0.90;;
4096;SDS011;2062;50.694;7.246;2023-05-06T14:02:54;3.47;;;1.00;;
4096;SDS011;2062;50.694;7.246;2023-05-06T14:05:21;4.20;;;0.98;;
4096;SDS011;2062;50.694;7.246;2023-05-06T14:07:49;3.03;;;0.90;;
4096;SDS011;2062;50.694;7.246;2023-05-06T14:10:17;4.30;;;1.00;;
4096;SDS011;2062;50.694;7.246;2023-05-06T14:12:44;2.60;;;0.70;;
4096;SDS011;2062;50.694;7.246;2023-05-06T14:15:11;7.05;;;0.98;;
4096;SDS011;2062;50.694;7.246;2023-05-06T14:17:38;3.38;;;0.98;;
4096;SDS011;2062;50.694;7.246;2023-05-06T14:20:06;4.35;;;0.95;;
4096;SDS011;2062;50.694;7.246;2023-05-06T14:22:34;4.07;;;1.00;;
4096;SDS011;2062;50.694;7.246;2023-05-06T14:25:03;3.85;;;0.82;;
4096;SDS011;2062;50.694;7.246;2023-05-06T14:27:30;3.00;;;0.90;;
4096;SDS011;2062;50.694;7.246;2023-05-06T14:29:57;4.10;;;0.98;;
4096;SDS011;2062;50.694;7.246;2023-05-06T14:32:24;2.92;;;0.90;;
4096;SDS011;2062;50.694;7.246;2023-05-06T14:34:50;3.90;;;0.70;;
4096;SDS011;2062;50.694;7.246;2023-05-06T14:37:17;2.63;;;0.75;;
4096;SDS011;2062;50.694;7.246;2023-05-06T14:39:44;2.67;;;0.65;;
4096;SDS011;2062;50.694;7.246;2023-05-06T14:42:12;2.95;;;0.90;;
4096;SDS011;2062;50.694;7.246;2023-05-06T14:44:39;3.83;;;0.80;;
4096;SDS011;2062;50.694;7.246;2023-05-06T14:47:07;2.60;;;0.80;;
4096;SDS011;2062;50.694;7.246;2023-05-06T14:49:34;3.60;;;0.80;;
4096;SDS011;2062;50.694;7.246;2023-05-06T14:52:01;3.67;;;0.80;;
4096;SDS011;2062;50.694;7.246;2023-05-06T14:54:28;2.40;;;0.60;;
4096;SDS011;2062;50.694;7.246;2023-05-06T14:56:55;2.92;;;0.70;;
4096;SDS011;2062;50.694;7.246;2023-05-06T14:59:26;3.73;;;0.80;;
4096;SDS011;2062;50.694;7.246;2023-05-06T15:01:54;3.38;;;0.80;;
4096;SDS011;2062;50.694;7.246;2023-05-06T15:04:21;4.18;;;0.93;;
4096;SDS011;2062;50.694;7.246;2023-05-06T15:06:48;3.65;;;1.17;;
4096;SDS011;2062;50.694;7.246;2023-05-06T15:09:15;4.47;;;1.30;;
4096;SDS011;2062;50.694;7.246;2023-05-06T15:11:42;8.67;;;1.20;;
4096;SDS011;2062;50.694;7.246;2023-05-06T15:14:09;4.40;;;1.45;;
4096;SDS011;2062;50.694;7.246;2023-05-06T15:16:37;3.80;;;1.10;;
4096;SDS011;2062;50.694;7.246;2023-05-06T15:19:04;4.97;;;1.10;;
4096;SDS011;2062;50.694;7.246;2023-05-06T15:21:31;3.00;;;0.80;;
4096;SDS011;2062;50.694;7.246;2023-05-06T15:23:58;4.60;;;0.80;;